createdAt,value
2023-07-08T00:00:40.484Z,48.51
2023-07-08T00:03:08.442Z,48.33
2023-07-08T00:05:36.131Z,48.39
2023-07-08T00:08:04.359Z,47.84
2023-07-08T00:10:31.995Z,47.93
2023-07-08T00:12:59.715Z,48.10
2023-07-08T00:15:27.747Z,48.53
2023-07-08T00:17:55.646Z,48.45
2023-07-08T00:20:23.373Z,48.52
2023-07-08T00:22:52.327Z,48.30
2023-07-08T00:25:20.735Z,48.57
2023-07-08T00:27:49.104Z,48.93
2023-07-08T00:30:18.521Z,48.92
2023-07-08T00:32:46.814Z,48.62
2023-07-08T00:35:14.433Z,49.42
2023-07-08T00:37:42.119Z,49.41
2023-07-08T00:40:10.130Z,49.26
2023-07-08T00:42:37.725Z,49.16
2023-07-08T00:45:05.444Z,48.99
2023-07-08T00:47:33.035Z,48.83
2023-07-08T00:50:00.876Z,48.95
2023-07-08T00:52:28.858Z,49.17
2023-07-08T00:54:56.842Z,49.28
2023-07-08T00:57:24.478Z,49.36
2023-07-08T00:59:52.124Z,49.63
2023-07-08T01:02:19.763Z,49.13
2023-07-08T01:04:47.391Z,49.39
2023-07-08T01:07:22.761Z,49.49
2023-07-08T01:09:50.493Z,49.33
2023-07-08T01:12:18.147Z,49.41
2023-07-08T01:14:46.123Z,50.06
2023-07-08T01:17:15.581Z,49.88
2023-07-08T01:19:43.323Z,49.75
2023-07-08T01:22:11.179Z,50.10
2023-07-08T01:24:39.592Z,50.36
2023-07-08T01:27:07.184Z,50.57
2023-07-08T01:29:35.541Z,50.40
2023-07-08T01:32:03.972Z,50.11
2023-07-08T01:34:31.725Z,50.78
2023-07-08T01:36:59.801Z,50.59
2023-07-08T01:39:27.486Z,50.75
2023-07-08T01:41:55.874Z,51.12
2023-07-08T01:44:23.752Z,51.28
2023-07-08T01:46:51.345Z,50.83
2023-07-08T01:49:18.951Z,50.92
2023-07-08T01:51:46.581Z,51.03
2023-07-08T01:54:14.631Z,51.36
2023-07-08T01:56:42.240Z,51.06
2023-07-08T01:59:10.463Z,51.09
2023-07-08T02:01:38.124Z,51.52
2023-07-08T02:04:05.745Z,51.21
2023-07-08T02:06:33.729Z,51.48
2023-07-08T02:09:01.338Z,51.67
2023-07-08T02:11:28.975Z,51.84
2023-07-08T02:13:56.654Z,51.54
2023-07-08T02:16:24.291Z,51.63
2023-07-08T02:18:52.261Z,51.44
2023-07-08T02:21:20.405Z,51.80
2023-07-08T02:23:48.045Z,51.72
2023-07-08T02:26:15.614Z,51.60
2023-07-08T02:28:43.293Z,52.01
2023-07-08T02:31:12.843Z,52.20
2023-07-08T02:33:41.818Z,51.55
2023-07-08T02:36:12.066Z,52.28
2023-07-08T02:38:40.178Z,51.84
2023-07-08T02:41:09.526Z,52.31
2023-07-08T02:43:40.965Z,52.04
2023-07-08T02:46:10.259Z,52.35
2023-07-08T02:48:41.220Z,52.02
2023-07-08T02:51:11.746Z,52.57
2023-07-08T02:53:40.147Z,52.16
2023-07-08T02:56:09.110Z,52.43
2023-07-08T02:58:37.242Z,52.62
2023-07-08T03:01:05.086Z,52.70
2023-07-08T03:03:33.091Z,52.41
2023-07-08T03:06:01.800Z,52.90
2023-07-08T03:08:29.537Z,52.39
2023-07-08T03:10:58.898Z,52.62
2023-07-08T03:13:27.539Z,52.80
2023-07-08T03:15:56.463Z,52.73
2023-07-08T03:18:25.384Z,52.81
2023-07-08T03:20:53.009Z,52.67
2023-07-08T03:23:20.777Z,52.75
2023-07-08T03:25:49.190Z,52.91
2023-07-08T03:28:16.913Z,53.31
2023-07-08T03:30:44.897Z,53.32
2023-07-08T03:33:12.536Z,52.93
2023-07-08T03:35:40.412Z,53.00
2023-07-08T03:38:08.045Z,53.09
2023-07-08T03:40:35.704Z,52.95
2023-07-08T03:43:03.670Z,53.19
2023-07-08T03:45:31.663Z,53.25
2023-07-08T03:47:59.392Z,53.11
2023-07-08T03:50:26.989Z,53.30
2023-07-08T03:52:54.583Z,53.59
2023-07-08T03:55:22.634Z,53.39
2023-07-08T03:57:50.263Z,53.53
2023-07-08T04:00:17.902Z,53.32
2023-07-08T04:02:45.555Z,53.48
2023-07-08T04:05:13.158Z,53.12
2023-07-08T04:07:41.806Z,53.29
2023-07-08T04:10:09.471Z,53.78
2023-07-08T04:12:37.078Z,53.20
2023-07-08T04:15:04.687Z,53.57
2023-07-08T04:17:32.346Z,52.82
2023-07-08T04:20:07.598Z,52.98
2023-07-08T04:22:35.233Z,53.33
2023-07-08T04:25:07.073Z,52.63
2023-07-08T04:27:34.693Z,53.28
2023-07-08T04:30:02.290Z,52.82
2023-07-08T04:32:30.152Z,53.07
2023-07-08T04:34:57.744Z,53.29
2023-07-08T04:37:25.606Z,52.99
2023-07-08T04:39:53.292Z,53.10
2023-07-08T04:42:20.920Z,53.03
2023-07-08T04:44:51.109Z,52.83
2023-07-08T04:47:21.337Z,52.76
2023-07-08T04:49:48.974Z,52.67
2023-07-08T04:52:16.633Z,52.96
2023-07-08T04:54:44.229Z,53.07
2023-07-08T04:57:12.202Z,53.18
2023-07-08T04:59:39.912Z,52.55
2023-07-08T05:02:07.563Z,52.53
2023-07-08T05:04:35.275Z,52.86
2023-07-08T05:07:02.949Z,52.40
2023-07-08T05:09:33.133Z,52.91
2023-07-08T05:12:00.782Z,52.41
2023-07-08T05:14:28.462Z,52.67
2023-07-08T05:16:56.073Z,52.67
2023-07-08T05:19:24.301Z,52.76
2023-07-08T05:21:52.328Z,52.93
2023-07-08T05:24:19.966Z,51.92
2023-07-08T05:26:47.554Z,52.15
2023-07-08T05:29:15.220Z,52.14
2023-07-08T05:31:48.040Z,51.68
2023-07-08T05:34:16.533Z,51.65
2023-07-08T05:36:44.181Z,51.46
2023-07-08T05:39:11.881Z,51.32
2023-07-08T05:41:39.524Z,50.39
2023-07-08T05:44:07.140Z,50.58
2023-07-08T05:46:34.820Z,50.27
2023-07-08T05:49:02.540Z,49.58
2023-07-08T05:51:33.274Z,49.21
2023-07-08T05:54:02.173Z,49.05
2023-07-08T05:56:31.854Z,48.76
2023-07-08T05:59:00.430Z,48.67
2023-07-08T06:01:28.136Z,48.81
2023-07-08T06:03:59.372Z,48.39
2023-07-08T06:06:27.152Z,48.20
2023-07-08T06:08:54.747Z,47.86
2023-07-08T06:11:23.284Z,47.71
2023-07-08T06:13:51.258Z,47.73
2023-07-08T06:16:31.318Z,47.13
2023-07-08T06:19:06.946Z,47.36
2023-07-08T06:21:34.911Z,46.96
2023-07-08T06:24:02.530Z,46.59
2023-07-08T06:26:30.381Z,46.66
2023-07-08T06:28:58.010Z,46.86
2023-07-08T06:31:25.698Z,46.38
2023-07-08T06:33:54.018Z,46.36
2023-07-08T06:36:21.630Z,45.56
2023-07-08T06:38:49.264Z,45.74
2023-07-08T06:41:16.991Z,45.67
2023-07-08T06:43:44.644Z,45.69
2023-07-08T06:46:12.770Z,45.38
2023-07-08T06:48:40.492Z,45.66
2023-07-08T06:51:08.140Z,45.30
2023-07-08T06:53:35.759Z,44.84
2023-07-08T06:56:03.988Z,45.17
2023-07-08T06:58:31.996Z,44.47
2023-07-08T07:00:59.859Z,44.59
2023-07-08T07:03:27.735Z,44.65
2023-07-08T07:05:55.389Z,44.68
2023-07-08T07:08:22.996Z,43.99
2023-07-08T07:10:51.011Z,44.22
2023-07-08T07:13:18.676Z,44.29
2023-07-08T07:15:46.361Z,44.30
2023-07-08T07:18:16.672Z,43.67
2023-07-08T07:20:44.292Z,43.69
2023-07-08T07:23:12.381Z,43.58
2023-07-08T07:25:40.091Z,43.12
2023-07-08T07:28:08.186Z,43.35
2023-07-08T07:30:35.836Z,43.59
2023-07-08T07:33:03.555Z,43.08
2023-07-08T07:35:31.590Z,42.68
2023-07-08T07:37:59.592Z,43.00
2023-07-08T07:40:28.565Z,42.49
2023-07-08T07:42:56.345Z,42.08
2023-07-08T07:45:24.010Z,42.43
2023-07-08T07:47:52.085Z,42.29
2023-07-08T07:50:19.789Z,42.32
2023-07-08T07:52:48.108Z,41.60
2023-07-08T07:55:15.918Z,41.87
2023-07-08T07:57:46.972Z,41.90
2023-07-08T08:00:15.684Z,41.52
2023-07-08T08:02:43.747Z,41.10
2023-07-08T08:05:11.710Z,41.39
2023-07-08T08:07:39.389Z,41.30
2023-07-08T08:10:06.229Z,41.36
2023-07-08T08:12:44.343Z,40.98
2023-07-08T08:15:20.455Z,41.11
2023-07-08T08:17:50.584Z,40.47
2023-07-08T08:20:18.465Z,40.37
2023-07-08T08:22:47.088Z,40.44
2023-07-08T08:25:14.840Z,40.14
2023-07-08T08:27:42.601Z,39.90
2023-07-08T08:30:10.432Z,39.72
2023-07-08T08:32:38.244Z,39.44
2023-07-08T08:35:06.282Z,39.22
2023-07-08T08:37:34.216Z,38.85
2023-07-08T08:40:02.094Z,38.39
2023-07-08T08:42:29.782Z,38.01
2023-07-08T08:44:59.352Z,37.85
2023-07-08T08:47:27.061Z,37.69
2023-07-08T08:49:54.736Z,37.27
2023-07-08T08:52:22.808Z,36.37
2023-07-08T08:54:52.488Z,36.85
2023-07-08T08:57:20.279Z,36.38
2023-07-08T08:59:48.362Z,36.50
2023-07-08T09:02:16.252Z,36.86
2023-07-08T09:04:44.000Z,36.42
2023-07-08T09:07:12.194Z,36.55
2023-07-08T09:09:39.869Z,35.59
2023-07-08T09:12:07.782Z,35.70
2023-07-08T09:14:35.500Z,35.80
2023-07-08T09:17:03.433Z,35.28
2023-07-08T09:19:31.158Z,35.37
2023-07-08T09:21:59.073Z,35.18
2023-07-08T09:24:29.252Z,35.23
2023-07-08T09:26:58.170Z,35.05
2023-07-08T09:29:27.573Z,35.19
2023-07-08T09:31:55.397Z,34.24
2023-07-08T09:34:23.762Z,34.23
2023-07-08T09:36:51.904Z,34.45
2023-07-08T09:39:19.942Z,34.14
2023-07-08T09:41:56.682Z,34.51
2023-07-08T09:44:27.758Z,34.19
2023-07-08T09:46:56.068Z,34.04
2023-07-08T09:49:24.632Z,34.33
2023-07-08T09:51:52.789Z,34.33
2023-07-08T09:54:20.631Z,34.33
2023-07-08T09:56:48.514Z,34.13
2023-07-08T09:59:17.006Z,33.72
2023-07-08T10:01:44.862Z,32.87
2023-07-08T10:04:12.963Z,33.16
2023-07-08T10:06:40.875Z,33.32
2023-07-08T10:09:08.904Z,31.78
2023-07-08T10:11:37.879Z,32.23
2023-07-08T10:14:14.085Z,31.63
2023-07-08T10:16:43.721Z,31.62
2023-07-08T10:19:11.669Z,31.28
2023-07-08T10:21:39.943Z,30.70
2023-07-08T10:24:07.912Z,30.17
2023-07-08T10:26:36.734Z,30.31
2023-07-08T10:29:04.484Z,30.02
2023-07-08T10:31:32.787Z,29.39
2023-07-08T10:34:01.383Z,29.72
2023-07-08T10:36:29.189Z,29.36
2023-07-08T10:38:56.977Z,28.52
2023-07-08T10:41:25.452Z,28.51
2023-07-08T10:43:53.603Z,28.06
2023-07-08T10:46:21.949Z,27.87
2023-07-08T10:48:50.069Z,27.61
2023-07-08T10:51:18.139Z,27.73
2023-07-08T10:53:46.544Z,27.54
2023-07-08T10:56:14.766Z,27.02
2023-07-08T10:58:42.957Z,26.82
2023-07-08T11:01:10.946Z,26.83
2023-07-08T11:03:39.032Z,26.96
2023-07-08T11:06:07.204Z,26.56
2023-07-08T11:08:35.197Z,26.67
2023-07-08T11:11:14.885Z,26.44
2023-07-08T11:13:46.381Z,25.99
2023-07-08T11:16:14.531Z,25.97
2023-07-08T11:18:42.546Z,25.93
2023-07-08T11:21:10.993Z,25.82
2023-07-08T11:23:38.881Z,25.28
2023-07-08T11:26:06.714Z,25.24
2023-07-08T11:28:34.844Z,25.15
2023-07-08T11:31:03.125Z,24.81
2023-07-08T11:33:33.945Z,24.67
2023-07-08T11:36:03.597Z,25.00
2023-07-08T11:38:31.644Z,24.84
2023-07-08T11:41:01.438Z,23.95
2023-07-08T11:43:29.646Z,24.84
2023-07-08T11:45:57.832Z,24.52
2023-07-08T11:48:28.141Z,24.32
2023-07-08T11:50:56.261Z,24.14
2023-07-08T11:53:24.097Z,24.29
2023-07-08T11:55:52.192Z,24.27
2023-07-08T11:58:20.405Z,23.58
2023-07-08T12:00:48.366Z,23.34
2023-07-08T12:03:16.383Z,23.44
2023-07-08T12:05:44.313Z,23.24
2023-07-08T12:08:12.134Z,23.12
2023-07-08T12:10:41.631Z,22.92
2023-07-08T12:13:09.667Z,22.58
2023-07-08T12:15:37.608Z,22.60
2023-07-08T12:18:06.144Z,22.54
2023-07-08T12:20:34.837Z,22.55
2023-07-08T12:23:07.422Z,22.86
2023-07-08T12:25:36.264Z,22.51
2023-07-08T12:28:04.257Z,22.19
2023-07-08T12:30:32.440Z,22.03
2023-07-08T12:33:01.432Z,22.25
2023-07-08T12:35:31.144Z,22.34
2023-07-08T12:38:00.370Z,22.47
2023-07-08T12:40:28.356Z,22.40
2023-07-08T12:42:56.481Z,21.82
2023-07-08T12:45:24.375Z,21.85
2023-07-08T12:47:57.118Z,21.81
2023-07-08T12:50:25.295Z,21.99
2023-07-08T12:52:53.176Z,21.54
2023-07-08T12:55:22.300Z,21.07
2023-07-08T12:57:50.144Z,20.88
2023-07-08T13:00:18.728Z,21.24
2023-07-08T13:02:47.147Z,20.75
2023-07-08T13:05:15.266Z,21.31
2023-07-08T13:07:43.837Z,20.93
2023-07-08T13:10:11.658Z,21.25
2023-07-08T13:12:39.925Z,21.07
2023-07-08T13:15:09.370Z,21.66
2023-07-08T13:17:39.154Z,21.01
2023-07-08T13:20:07.517Z,21.76
2023-07-08T13:22:36.347Z,21.71
2023-07-08T13:25:04.932Z,21.61
2023-07-08T13:27:32.990Z,21.52
2023-07-08T13:30:00.777Z,21.85
2023-07-08T13:32:28.926Z,22.10
2023-07-08T13:34:56.860Z,22.20
2023-07-08T13:37:27.287Z,22.37
2023-07-08T13:39:55.301Z,22.78
2023-07-08T13:42:23.172Z,23.21
2023-07-08T13:44:52.518Z,22.83
2023-07-08T13:47:20.595Z,23.51
2023-07-08T13:49:48.766Z,22.97
2023-07-08T13:52:16.692Z,23.56
2023-07-08T13:54:44.617Z,23.05
2023-07-08T13:57:12.618Z,23.54
2023-07-08T13:59:40.547Z,23.52
2023-07-08T14:02:08.987Z,23.62
2023-07-08T14:04:37.164Z,24.20
2023-07-08T14:07:05.567Z,24.06
2023-07-08T14:09:33.984Z,23.60
2023-07-08T14:12:01.888Z,23.74
2023-07-08T14:14:30.149Z,23.23
2023-07-08T14:16:58.379Z,22.78
2023-07-08T14:19:26.336Z,22.54
2023-07-08T14:21:54.398Z,22.27
2023-07-08T14:24:22.342Z,22.32
2023-07-08T14:26:50.521Z,21.74
2023-07-08T14:29:18.729Z,21.86
2023-07-08T14:31:46.651Z,22.35
2023-07-08T14:34:14.850Z,21.94
2023-07-08T14:36:42.820Z,22.94
2023-07-08T14:39:10.955Z,22.36
2023-07-08T14:41:38.953Z,21.58
2023-07-08T14:44:06.844Z,21.07
2023-07-08T14:46:35.267Z,20.13
2023-07-08T14:49:03.268Z,19.67
2023-07-08T14:51:34.704Z,19.25
2023-07-08T14:54:02.748Z,19.68
2023-07-08T14:56:30.681Z,21.07
2023-07-08T14:58:58.580Z,20.92
2023-07-08T15:01:29.226Z,20.80
2023-07-08T15:03:57.649Z,20.27
2023-07-08T15:06:25.515Z,20.57
2023-07-08T15:08:53.540Z,20.58
2023-07-08T15:11:21.743Z,20.48
2023-07-08T15:13:50.030Z,20.43
2023-07-08T15:16:18.252Z,21.69
2023-07-08T15:18:46.386Z,20.65
2023-07-08T15:21:14.448Z,20.03
2023-07-08T15:23:42.556Z,19.50
2023-07-08T15:26:12.824Z,18.96
2023-07-08T15:28:41.762Z,20.62
2023-07-08T15:31:09.703Z,21.71
2023-07-08T15:33:37.570Z,22.79
2023-07-08T15:36:07.156Z,23.06
2023-07-08T15:38:34.969Z,22.43
2023-07-08T15:41:03.244Z,22.10
2023-07-08T15:43:31.138Z,22.23
2023-07-08T15:45:59.007Z,22.33
2023-07-08T15:48:27.305Z,22.10
2023-07-08T15:50:55.338Z,22.65
2023-07-08T15:53:23.295Z,23.61
2023-07-08T15:55:51.085Z,24.21
2023-07-08T15:58:18.955Z,24.07
2023-07-08T16:00:46.990Z,23.88
2023-07-08T16:03:15.149Z,23.05
2023-07-08T16:05:43.692Z,22.29
2023-07-08T16:08:11.648Z,21.72
2023-07-08T16:10:39.895Z,22.03
2023-07-08T16:13:08.562Z,23.41
2023-07-08T16:15:36.559Z,23.56
2023-07-08T16:18:04.786Z,24.29
2023-07-08T16:20:33.709Z,25.42
2023-07-08T16:23:02.875Z,25.98
2023-07-08T16:25:31.032Z,26.40
2023-07-08T16:27:58.871Z,26.94
2023-07-08T16:30:27.344Z,27.50
2023-07-08T16:32:55.272Z,28.37
2023-07-08T16:35:23.238Z,28.34
2023-07-08T16:37:51.307Z,28.55
2023-07-08T16:40:19.124Z,29.37
2023-07-08T16:42:47.647Z,29.19
2023-07-08T16:45:15.650Z,29.91
2023-07-08T16:47:43.714Z,29.75
2023-07-08T16:50:11.884Z,30.40
2023-07-08T16:52:39.782Z,29.98
2023-07-08T16:55:08.244Z,30.70
2023-07-08T16:57:36.103Z,30.96
2023-07-08T17:00:04.636Z,31.14
2023-07-08T17:02:33.999Z,30.67
2023-07-08T17:05:04.102Z,31.79
2023-07-08T17:07:34.806Z,31.52
2023-07-08T17:10:02.635Z,31.42
2023-07-08T17:12:30.462Z,31.30
2023-07-08T17:14:59.111Z,31.24
2023-07-08T17:17:26.983Z,31.80
2023-07-08T17:19:55.157Z,31.62
2023-07-08T17:22:23.100Z,31.84
2023-07-08T17:24:51.009Z,31.65
2023-07-08T17:27:19.138Z,32.18
2023-07-08T17:29:47.115Z,32.03
2023-07-08T17:32:14.970Z,31.84
2023-07-08T17:34:42.891Z,32.34
2023-07-08T17:37:10.776Z,33.03
2023-07-08T17:39:39.046Z,32.79
2023-07-08T17:42:07.042Z,32.90
2023-07-08T17:44:35.160Z,32.85
2023-07-08T17:47:03.287Z,33.06
2023-07-08T17:49:32.204Z,33.05
2023-07-08T17:52:00.249Z,33.12
2023-07-08T17:54:32.090Z,33.66
2023-07-08T17:57:02.121Z,33.27
2023-07-08T17:59:31.073Z,33.64
2023-07-08T18:01:59.026Z,33.39
2023-07-08T18:04:28.161Z,34.06
2023-07-08T18:06:56.045Z,34.05
2023-07-08T18:09:24.823Z,34.51
2023-07-08T18:11:52.832Z,34.80
2023-07-08T18:14:20.704Z,34.61
2023-07-08T18:16:48.519Z,34.65
2023-07-08T18:19:16.461Z,34.72
2023-07-08T18:21:44.859Z,34.85
2023-07-08T18:24:13.234Z,34.69
2023-07-08T18:26:41.142Z,35.45
2023-07-08T18:29:09.265Z,34.97
2023-07-08T18:31:37.548Z,35.26
2023-07-08T18:34:06.943Z,35.37
2023-07-08T18:36:34.786Z,35.50
2023-07-08T18:39:02.725Z,35.81
2023-07-08T18:41:30.847Z,35.27
2023-07-08T18:43:58.745Z,35.70
2023-07-08T18:46:27.088Z,35.91
2023-07-08T18:48:55.054Z,36.12
2023-07-08T18:51:22.925Z,36.30
2023-07-08T18:53:50.754Z,36.29
2023-07-08T18:56:18.690Z,36.21
2023-07-08T18:58:46.929Z,36.82
2023-07-08T19:01:14.939Z,36.61
2023-07-08T19:03:42.753Z,36.74
2023-07-08T19:06:10.672Z,37.41
2023-07-08T19:08:38.465Z,37.26
2023-07-08T19:11:06.670Z,37.74
2023-07-08T19:13:35.064Z,37.47
2023-07-08T19:16:03.101Z,37.89
2023-07-08T19:18:31.274Z,38.61
2023-07-08T19:20:59.019Z,38.52
2023-07-08T19:23:27.413Z,38.50
2023-07-08T19:25:56.783Z,39.23
2023-07-08T19:28:24.599Z,39.08
2023-07-08T19:30:53.050Z,39.70
2023-07-08T19:33:22.978Z,40.11
2023-07-08T19:35:51.693Z,39.97
2023-07-08T19:38:21.892Z,40.62
2023-07-08T19:40:51.558Z,40.27
2023-07-08T19:43:19.850Z,40.34
2023-07-08T19:45:47.772Z,40.52
2023-07-08T19:48:15.801Z,40.86
2023-07-08T19:50:43.768Z,40.68
2023-07-08T19:53:11.713Z,40.90
2023-07-08T19:55:39.685Z,41.20
2023-07-08T19:58:07.725Z,40.79
2023-07-08T20:00:35.957Z,41.64
2023-07-08T20:03:04.524Z,41.49
2023-07-08T20:05:32.374Z,41.54
2023-07-08T20:08:00.246Z,40.87
2023-07-08T20:10:28.192Z,41.61
2023-07-08T20:12:58.350Z,41.68
2023-07-08T20:15:26.380Z,41.48
2023-07-08T20:17:54.548Z,41.48
2023-07-08T20:20:24.302Z,41.47
2023-07-08T20:22:52.036Z,41.42
2023-07-08T20:25:20.450Z,41.70
2023-07-08T20:27:48.281Z,42.00
2023-07-08T20:30:16.306Z,41.75
2023-07-08T20:32:44.195Z,41.80
2023-07-08T20:35:11.968Z,41.88
2023-07-08T20:37:40.405Z,42.03
2023-07-08T20:40:08.738Z,42.01
2023-07-08T20:42:37.045Z,42.18
2023-07-08T20:45:05.105Z,41.75
2023-07-08T20:47:33.069Z,42.20
2023-07-08T20:50:03.944Z,42.24
2023-07-08T20:52:31.911Z,42.56
2023-07-08T20:54:59.913Z,42.70
2023-07-08T20:57:28.243Z,42.86
2023-07-08T20:59:56.006Z,42.70
2023-07-08T21:02:24.951Z,43.14
2023-07-08T21:04:53.354Z,42.85
2023-07-08T21:07:21.271Z,42.87
2023-07-08T21:09:49.344Z,42.86
2023-07-08T21:12:17.149Z,43.69
2023-07-08T21:14:45.508Z,43.19
2023-07-08T21:17:13.524Z,43.67
2023-07-08T21:19:41.375Z,43.56
2023-07-08T21:22:09.248Z,43.57
2023-07-08T21:24:37.266Z,44.07
2023-07-08T21:27:05.756Z,43.84
2023-07-08T21:29:33.558Z,44.00
2023-07-08T21:32:01.600Z,43.72
2023-07-08T21:34:29.575Z,43.95
2023-07-08T21:36:57.454Z,43.76
2023-07-08T21:39:25.562Z,44.32
2023-07-08T21:41:53.535Z,44.06
2023-07-08T21:44:21.348Z,43.78
2023-07-08T21:46:49.297Z,44.13
2023-07-08T21:49:17.364Z,43.77
2023-07-08T21:51:45.692Z,43.69
2023-07-08T21:54:13.665Z,44.50
2023-07-08T21:56:41.505Z,44.15
2023-07-08T21:59:09.329Z,44.23
2023-07-08T22:01:37.296Z,44.21
2023-07-08T22:04:05.272Z,44.17
2023-07-08T22:06:34.078Z,44.01
2023-07-08T22:09:02.351Z,44.30
2023-07-08T22:11:30.144Z,44.32
2023-07-08T22:13:59.847Z,44.75
2023-07-08T22:16:28.192Z,44.64
2023-07-08T22:18:56.290Z,44.91
2023-07-08T22:21:29.574Z,44.96
2023-07-08T22:23:58.385Z,44.45
2023-07-08T22:26:26.154Z,44.66
2023-07-08T22:28:54.233Z,45.11
2023-07-08T22:31:22.644Z,44.79
2023-07-08T22:33:50.427Z,44.87
2023-07-08T22:36:18.444Z,45.04
2023-07-08T22:38:46.186Z,45.14
2023-07-08T22:41:14.563Z,44.88
2023-07-08T22:43:42.459Z,45.27
2023-07-08T22:46:10.294Z,44.98
2023-07-08T22:48:38.412Z,44.88
2023-07-08T22:51:06.204Z,45.10
2023-07-08T22:53:33.940Z,45.44
2023-07-08T22:56:02.115Z,45.30
2023-07-08T22:58:30.069Z,45.58
2023-07-08T23:00:57.857Z,45.64
2023-07-08T23:03:25.804Z,45.69
2023-07-08T23:05:53.618Z,45.59
2023-07-08T23:08:21.302Z,45.52
2023-07-08T23:10:49.226Z,45.67
2023-07-08T23:13:16.921Z,45.48
2023-07-08T23:15:45.855Z,45.94
2023-07-08T23:18:13.864Z,46.13
2023-07-08T23:20:41.678Z,45.80
2023-07-08T23:23:09.510Z,46.21
2023-07-08T23:25:37.472Z,46.29
2023-07-08T23:28:05.211Z,45.81
2023-07-08T23:30:33.291Z,45.94
2023-07-08T23:33:01.011Z,46.47
2023-07-08T23:35:28.675Z,46.60
2023-07-08T23:37:58.453Z,46.45
2023-07-08T23:40:26.045Z,46.08
2023-07-08T23:42:54.544Z,46.57
2023-07-08T23:45:22.196Z,46.33
2023-07-08T23:47:49.850Z,46.83
2023-07-08T23:50:17.532Z,46.72
2023-07-08T23:52:45.461Z,46.73
2023-07-08T23:55:14.224Z,46.58
2023-07-08T23:57:41.995Z,47.18
